Terminal Aerodrome Forecast
Issued by NWS

Home | Current Version | Previous Version | Text Only | Print | Product List | Glossary On
Versions: 1 2 3 4 5 6 7 8 9 10 11 12 13 14 15 16 17 18 19 20 21 22 23 24 25 26 27 28 29 30
000
FTUS44 KFWD 010149 AAA
TAFFTW
TAF AMD
KFTW 010149Z 0102/0124 11015KT P6SM VCSH BKN007 BKN070 OVC110
      TEMPO 0102/0104 SCT007
     FM010400 10005KT 5SM BR SCT005 BKN070 OVC250
     FM010800 05005KT 5SM -SHRA VCTS BKN020CB OVC100
      TEMPO 0109/0112 36015G25KT 2SM TSRA BKN015CB OVC100
     FM011500 13010KT P6SM BKN030 BKN150
     FM012100 13010KT P6SM VCTS BKN040CB=

USA.gov is the U.S. government's official web portal to all federal, state and local government web resources and services.